McKenzie, North Dakota
Current Conditions -  °F | °C
As of 10:52 AM on Thursday 27 Nov 2014 (Local Time) from KBIS Reporting Station
Overcast Overcast  
Wind Chill: -9°   Ceiling: 7500
Heat Index:   Visibility: 10mi
Dew Point:   Wind: 9mph
Humidity: 84%   Direction: 130°SE
Pressure: 30.27"   Gusts: NA
Location:  46.82°N, 100.41°W
Report Text: KBIS 271652Z 13008KT 10SM OVC075 M15/M17 A3027 RMK AO2 SLP301 T11501172
Loading
Personal Weather Stations






























Interactive Weather Map New forecast layout! Learn more

10-Day Weather Forecast

Advertisements
Track Severe Weather on mobile